Time,TemperatureF,DewpointF,PressureIn,WindDirection,WindDirectionDegrees,WindSpeedMPH,WindSpeedGustMPH,Humidity,HourlyPrecipIn,Conditions,Clouds,dailyrainin,SoftwareType,DateUTC
2013-04-03 00:06:00,31.1,15.0,29.80,West,269,14.0,21.0,52,0.00,,,0.00,weatherlink.com 1.10,2013-04-03 04:06:00,
2013-04-03 00:21:00,31.4,15.0,29.80,West,277,12.0,21.0,52,0.00,,,0.00,weatherlink.com 1.10,2013-04-03 04:21:00,
2013-04-03 00:36:00,31.4,14.0,29.81,West,266,8.0,23.0,49,0.00,,,0.00,weatherlink.com 1.10,2013-04-03 04:36:00,
2013-04-03 01:21:00,29.4,20.0,29.82,NW,309,14.0,21.0,67,0.00,,,0.00,weatherlink.com 1.10,2013-04-03 05:21:00,
2013-04-03 01:51:00,29.4,21.0,29.82,West,265,9.0,15.0,71,0.00,,,0.00,weatherlink.com 1.10,2013-04-03 05:51:00,
2013-04-03 02:07:00,29.6,21.0,29.82,WSW,253,10.0,12.0,71,0.00,,,0.00,weatherlink.com 1.10,2013-04-03 06:07:00,
2013-04-03 02:21:00,29.8,21.0,29.82,West,277,18.0,25.0,69,0.00,,,0.00,weatherlink.com 1.10,2013-04-03 06:21:00,
2013-04-03 02:37:00,30.0,20.0,29.82,WNW,288,18.0,30.0,67,0.00,,,0.00,weatherlink.com 1.10,2013-04-03 06:37:00,
2013-04-03 02:52:00,30.0,20.0,29.81,West,259,12.0,23.0,66,0.00,,,0.00,weatherlink.com 1.10,2013-04-03 06:52:00,
2013-04-03 03:07:00,30.2,19.0,29.82,West,275,10.0,21.0,64,0.00,,,0.00,weatherlink.com 1.10,2013-04-03 07:07:00,
2013-04-03 03:22:00,30.2,19.0,29.82,West,265,10.0,18.0,64,0.00,,,0.00,weatherlink.com 1.10,2013-04-03 07:22:00,
2013-04-03 03:37:00,29.9,19.0,29.82,WSW,250,12.0,21.0,63,0.00,,,0.00,weatherlink.com 1.10,2013-04-03 07:37:00,
2013-04-03 04:07:00,29.8,18.0,29.82,West,263,8.0,16.0,63,0.00,,,0.00,weatherlink.com 1.10,2013-04-03 08:07:00,
2013-04-03 04:22:00,29.9,18.0,29.82,WSW,250,5.0,19.0,62,0.00,,,0.00,weatherlink.com 1.10,2013-04-03 08:22:00,
2013-04-03 04:37:00,29.8,17.0,29.82,WSW,238,15.0,20.0,59,0.00,,,0.00,weatherlink.com 1.10,2013-04-03 08:37:00,
2013-04-03 04:52:00,29.9,15.0,29.82,West,259,14.0,20.0,54,0.00,,,0.00,weatherlink.com 1.10,2013-04-03 08:52:00,
2013-04-03 05:07:00,29.7,15.0,29.82,WSW,257,5.0,14.0,54,0.00,,,0.00,weatherlink.com 1.10,2013-04-03 09:07:00,
2013-04-03 05:22:00,29.8,14.0,29.82,West,274,14.0,20.0,53,0.00,,,0.00,weatherlink.com 1.10,2013-04-03 09:22:00,
2013-04-03 05:37:00,29.8,14.0,29.82,WSW,258,7.0,21.0,52,0.00,,,0.00,weatherlink.com 1.10,2013-04-03 09:37:00,
2013-04-03 05:52:00,29.7,13.0,29.83,WSW,255,8.0,16.0,51,0.00,,,0.00,weatherlink.com 1.10,2013-04-03 09:52:00,
2013-04-03 06:07:00,29.4,14.0,29.83,WSW,248,6.0,9.0,53,0.00,,,0.00,weatherlink.com 1.10,2013-04-03 10:07:00,
2013-04-03 06:22:00,29.3,15.0,29.83,WSW,249,10.0,13.0,55,0.00,,,0.00,weatherlink.com 1.10,2013-04-03 10:22:00,
2013-04-03 06:37:00,29.7,15.0,29.84,WSW,249,9.0,15.0,55,0.00,,,0.00,weatherlink.com 1.10,2013-04-03 10:37:00,
2013-04-03 06:52:00,29.8,16.0,29.84,WSW,247,7.0,11.0,56,0.00,,,0.00,weatherlink.com 1.10,2013-04-03 10:52:00,
2013-04-03 07:07:00,30.0,15.0,29.85,WSW,252,8.0,13.0,55,0.00,,,0.00,weatherlink.com 1.10,2013-04-03 11:07:00,
2013-04-03 07:22:00,30.3,16.0,29.85,WSW,252,6.0,13.0,55,0.00,,,0.00,weatherlink.com 1.10,2013-04-03 11:22:00,
2013-04-03 07:37:00,30.8,15.0,29.84,WSW,245,11.0,19.0,52,0.00,,,0.00,weatherlink.com 1.10,2013-04-03 11:37:00,
2013-04-03 07:52:00,31.2,14.0,29.85,West,266,18.0,24.0,50,0.00,,,0.00,weatherlink.com 1.10,2013-04-03 11:52:00,
2013-04-03 08:07:00,31.4,15.0,29.85,SW,228,12.0,22.0,51,0.00,,,0.00,weatherlink.com 1.10,2013-04-03 12:07:00,
2013-04-03 08:22:00,31.6,15.0,29.85,West,261,21.0,21.0,51,0.00,,,0.00,weatherlink.com 1.10,2013-04-03 12:22:00,
2013-04-03 08:37:00,31.9,15.0,29.84,WNW,282,13.0,26.0,50,0.00,,,0.00,weatherlink.com 1.10,2013-04-03 12:37:00,
2013-04-03 08:52:00,31.8,14.0,29.84,SW,229,11.0,25.0,49,0.00,,,0.00,weatherlink.com 1.10,2013-04-03 12:52:00,
2013-04-03 09:07:00,32.4,15.0,29.84,West,265,13.0,30.0,48,0.00,,,0.00,weatherlink.com 1.10,2013-04-03 13:07:00,
2013-04-03 09:22:00,33.1,15.0,29.84,West,277,25.0,28.0,48,0.00,,,0.00,weatherlink.com 1.10,2013-04-03 13:22:00,
2013-04-03 09:37:00,33.7,14.0,29.83,West,268,15.0,30.0,44,0.00,,,0.00,weatherlink.com 1.10,2013-04-03 13:37:00,
2013-04-03 09:52:00,33.7,14.0,29.83,SW,224,14.0,26.0,45,0.00,,,0.00,weatherlink.com 1.10,2013-04-03 13:52:00,
2013-04-03 10:07:00,34.3,12.0,29.83,WSW,240,21.0,33.0,40,0.00,,,0.00,weatherlink.com 1.10,2013-04-03 14:07:00,
2013-04-03 10:22:00,35.0,13.0,29.82,WSW,254,18.0,32.0,41,0.00,,,0.00,weatherlink.com 1.10,2013-04-03 14:22:00,
2013-04-03 10:37:00,35.6,13.0,29.83,WSW,248,16.0,29.0,39,0.00,,,0.00,weatherlink.com 1.10,2013-04-03 14:37:00,
2013-04-03 10:52:00,35.8,12.0,29.82,West,267,24.0,33.0,38,0.00,,,0.00,weatherlink.com 1.10,2013-04-03 14:52:00,
2013-04-03 11:07:00,36.2,11.0,29.82,NW,305,20.0,34.0,36,0.00,,,0.00,weatherlink.com 1.10,2013-04-03 15:07:00,
2013-04-03 11:22:00,36.5,12.0,29.82,West,270,18.0,31.0,36,0.00,,,0.00,weatherlink.com 1.10,2013-04-03 15:22:00,
2013-04-03 11:37:00,36.9,11.0,29.82,WSW,238,26.0,28.0,35,0.00,,,0.00,weatherlink.com 1.10,2013-04-03 15:37:00,
2013-04-03 11:52:00,37.5,13.0,29.82,WNW,284,22.0,33.0,36,0.00,,,0.00,weatherlink.com 1.10,2013-04-03 15:52:00,
2013-04-03 12:07:00,37.1,11.0,29.82,WSW,252,11.0,38.0,34,0.00,,,0.00,weatherlink.com 1.10,2013-04-03 16:07:00,
2013-04-03 12:23:00,38.1,12.0,29.81,West,268,20.0,30.0,34,0.00,,,0.00,weatherlink.com 1.10,2013-04-03 16:23:00,
2013-04-03 12:37:00,38.9,14.0,29.81,West,270,22.0,31.0,36,0.00,,,0.00,weatherlink.com 1.10,2013-04-03 16:37:00,
2013-04-03 12:52:00,39.1,13.0,29.81,West,272,23.0,34.0,35,0.00,,,0.00,weatherlink.com 1.10,2013-04-03 16:52:00,
2013-04-03 13:07:00,39.2,12.0,29.81,WSW,248,29.0,41.0,33,0.00,,,0.00,weatherlink.com 1.10,2013-04-03 17:07:00,
2013-04-03 13:22:00,39.2,12.0,29.81,WNW,288,21.0,40.0,33,0.00,,,0.00,weatherlink.com 1.10,2013-04-03 17:22:00,
2013-04-03 13:37:00,39.8,13.0,29.81,WNW,302,23.0,39.0,33,0.00,,,0.00,weatherlink.com 1.10,2013-04-03 17:37:00,
2013-04-03 13:52:00,39.7,14.0,29.82,West,270,24.0,36.0,35,0.00,,,0.00,weatherlink.com 1.10,2013-04-03 17:52:00,
2013-04-03 14:07:00,39.3,14.0,29.82,WSW,257,19.0,39.0,35,0.00,,,0.00,weatherlink.com 1.10,2013-04-03 18:07:00,
2013-04-03 14:37:00,40.0,14.0,29.82,WSW,251,20.0,34.0,35,0.00,,,0.00,weatherlink.com 1.10,2013-04-03 18:37:00,
2013-04-03 14:53:00,40.4,15.0,29.82,WNW,289,12.0,33.0,36,0.00,,,0.00,weatherlink.com 1.10,2013-04-03 18:53:00,
2013-04-03 15:08:00,40.4,15.0,29.82,West,279,16.0,36.0,35,0.00,,,0.00,weatherlink.com 1.10,2013-04-03 19:08:00,
2013-04-03 15:23:00,40.5,15.0,29.82,WNW,292,27.0,35.0,35,0.00,,,0.00,weatherlink.com 1.10,2013-04-03 19:23:00,
2013-04-03 15:38:00,41.1,16.0,29.82,WNW,294,23.0,28.0,36,0.00,,,0.00,weatherlink.com 1.10,2013-04-03 19:38:00,
2013-04-03 15:53:00,41.3,15.0,29.82,West,265,27.0,37.0,35,0.00,,,0.00,weatherlink.com 1.10,2013-04-03 19:53:00,
2013-04-03 16:08:00,41.6,15.0,29.82,West,268,33.0,34.0,34,0.00,,,0.00,weatherlink.com 1.10,2013-04-03 20:08:00,
2013-04-03 16:23:00,41.2,15.0,29.83,West,261,29.0,36.0,34,0.00,,,0.00,weatherlink.com 1.10,2013-04-03 20:23:00,
2013-04-03 16:38:00,41.5,14.0,29.83,West,266,16.0,35.0,33,0.00,,,0.00,weatherlink.com 1.10,2013-04-03 20:38:00,
2013-04-03 16:53:00,41.3,15.0,29.84,WNW,286,26.0,39.0,34,0.00,,,0.00,weatherlink.com 1.10,2013-04-03 20:53:00,
2013-04-03 17:08:00,40.7,15.0,29.84,WNW,300,24.0,37.0,35,0.00,,,0.00,weatherlink.com 1.10,2013-04-03 21:08:00,
2013-04-03 17:23:00,40.5,15.0,29.85,WNW,290,25.0,44.0,35,0.00,,,0.00,weatherlink.com 1.10,2013-04-03 21:23:00,
2013-04-03 17:38:00,40.2,16.0,29.86,West,271,24.0,31.0,37,0.00,,,0.00,weatherlink.com 1.10,2013-04-03 21:38:00,
2013-04-03 17:53:00,40.0,17.0,29.87,WNW,290,12.0,30.0,39,0.00,,,0.00,weatherlink.com 1.10,2013-04-03 21:53:00,
2013-04-03 18:08:00,39.3,17.0,29.88,WNW,301,29.0,37.0,41,0.00,,,0.00,weatherlink.com 1.10,2013-04-03 22:08:00,
2013-04-03 18:23:00,38.8,17.0,29.88,WNW,293,19.0,31.0,42,0.00,,,0.00,weatherlink.com 1.10,2013-04-03 22:23:00,
2013-04-03 18:38:00,38.3,18.0,29.89,WNW,299,20.0,33.0,44,0.00,,,0.00,weatherlink.com 1.10,2013-04-03 22:38:00,
2013-04-03 18:53:00,37.7,18.0,29.90,West,281,20.0,32.0,45,0.00,,,0.00,weatherlink.com 1.10,2013-04-03 22:53:00,
2013-04-03 19:08:00,37.3,18.0,29.91,WNW,296,20.0,27.0,46,0.00,,,0.00,weatherlink.com 1.10,2013-04-03 23:08:00,
2013-04-03 19:23:00,36.9,18.0,29.92,WNW,295,16.0,23.0,47,0.00,,,0.00,weatherlink.com 1.10,2013-04-03 23:23:00,
2013-04-03 19:38:00,36.6,18.0,29.93,WNW,292,11.0,33.0,48,0.00,,,0.00,weatherlink.com 1.10,2013-04-03 23:38:00,
2013-04-03 19:53:00,36.1,18.0,29.94,WNW,291,12.0,22.0,49,0.00,,,0.00,weatherlink.com 1.10,2013-04-03 23:53:00,
2013-04-03 20:23:00,35.3,19.0,29.97,WNW,292,20.0,30.0,52,0.00,,,0.00,weatherlink.com 1.10,2013-04-04 00:23:00,
2013-04-03 20:38:00,35.0,19.0,29.98,West,272,11.0,26.0,53,0.00,,,0.00,weatherlink.com 1.10,2013-04-04 00:38:00,
2013-04-03 20:53:00,34.7,19.0,29.98,West,277,15.0,26.0,54,0.00,,,0.00,weatherlink.com 1.10,2013-04-04 00:53:00,
2013-04-03 21:08:00,34.4,20.0,29.99,WNW,285,9.0,24.0,55,0.00,,,0.00,weatherlink.com 1.10,2013-04-04 01:08:00,
2013-04-03 21:23:00,34.3,20.0,30.00,WNW,289,12.0,30.0,55,0.00,,,0.00,weatherlink.com 1.10,2013-04-04 01:23:00,
2013-04-03 21:38:00,34.3,20.0,30.01,WNW,284,10.0,23.0,55,0.00,,,0.00,weatherlink.com 1.10,2013-04-04 01:38:00,
2013-04-03 22:08:00,34.0,19.0,30.01,WNW,284,18.0,28.0,55,0.00,,,0.00,weatherlink.com 1.10,2013-04-04 02:08:00,
2013-04-03 22:23:00,33.9,19.0,30.01,West,279,12.0,26.0,55,0.00,,,0.00,weatherlink.com 1.10,2013-04-04 02:23:00,
2013-04-03 22:38:00,33.7,19.0,30.01,West,266,19.0,29.0,56,0.00,,,0.00,weatherlink.com 1.10,2013-04-04 02:38:00,
2013-04-03 23:09:00,33.6,19.0,30.01,WNW,284,22.0,25.0,56,0.00,,,0.00,weatherlink.com 1.10,2013-04-04 03:09:00,
2013-04-03 23:23:00,33.6,19.0,30.02,WNW,286,14.0,26.0,56,0.00,,,0.00,weatherlink.com 1.10,2013-04-04 03:23:00,
2013-04-03 23:38:00,33.4,19.0,30.02,West,281,8.0,23.0,56,0.00,,,0.00,weatherlink.com 1.10,2013-04-04 03:38:00,